• Join FlightAware (Why Join?)
  • Login
  • US Flag 
09:55AM EDT


 

Airport Tracker/Info


-or-


 

Live Flight TrackerFlight Track Log ✈ SKW4664 ✈ 23-Jul-2013 ✈ KFSD - KMSP

Flight Track Log - Related Links

Times and Time Zones

All times are in EDT time to prevent confusion due to time zone crossing. See the SKW4664 flight status page for this flight to view local times or setup timezone preferences in your user account.

Time Position Orientation Groundspeed Altitude Reporting Facility
EDT Latitude Longitude Course Direction KTS MPH feet Rate Location/Type
12:10PM 43.6228 -96.7458 52° Northeast 152 175 3,000  Level Minneapolis Center
12:11PM 43.6575 -96.6878 50° Northeast 192 221 5,300 1,980 Climbing Minneapolis Center
12:12PM 43.6975 -96.6119 54° Northeast 219 252 7,100 1,920 Climbing Minneapolis Center
12:13PM 43.8416 -96.2544 53° Northeast  Level FlightAware Approximate
12:13PM 43.7458 -96.5214 54° Northeast 259 298 9,400  Level Minneapolis Center
12:14PM 43.9086 -96.1314 53° Northeast  Level FlightAware Approximate
12:14PM 43.7858 -96.4467 53° Northeast 285 328 11,200  Level Minneapolis Center
12:15PM 43.9766 -96.0091 52° Northeast  Level FlightAware Approximate
12:15PM 43.8564 -96.3106 54° Northeast 310 357 14,100  Level Minneapolis Center
12:16PM 43.9036 -96.1908 61° Northeast 351 404 14,600 720 Climbing Minneapolis Center
12:17PM 43.9575 -96.0592 60° Northeast 391 450 15,600 1,500 Climbing Minneapolis Center
12:18PM 44.0108 -95.9244 61° Northeast 403 464 17,800 2,460 Climbing Minneapolis Center
12:19PM 44.0878 -95.8083 47° Northeast 351 404 20,700 2,100 Climbing Minneapolis Center
12:20PM 44.1664 -95.7292 36° Northeast 351 404 22,200 1,080 Climbing Minneapolis Center
12:21PM 44.2456 -95.6453 37° Northeast 358 412 23,000 360 Climbing Minneapolis Center
12:22PM 44.3267 -95.5625 36° Northeast 362 417 23,000  Level Minneapolis Center
12:24PM 44.3814 -95.4461 57° Northeast 378 435 23,000  Level Minneapolis Center
12:25PM 44.4308 -95.2475 71° East 387 445 23,000  Level Minneapolis Center
12:26PM 44.4661 -95.1036 71° East 390 449 23,000 -240 Level Minneapolis Center
12:27PM 44.5014 -94.9606 71° East 390 449 22,600 -1,260 Descending Minneapolis Center
12:28PM 44.5375 -94.8128 71° East 397 457 20,400 -2,100 Descending Minneapolis Center
12:29PM 44.5733 -94.6644 71° East 402 463 18,300 -2,160 Descending Minneapolis Center
12:30PM 44.6111 -94.5081 71° East 391 450 16,000 -2,100 Descending Minneapolis Center
12:31PM 44.6431 -94.3731 72° East 365 420 14,000 -1,980 Descending Minneapolis Center
12:32PM 44.6731 -94.2436 72° East 349 402 12,000 -1,380 Descending Minneapolis Center
12:33PM 44.7019 -94.1183 72° East 337 388 11,000 -480 Descending Minneapolis Center
12:34PM 44.7403 -93.9464 73° East 331 381 11,000  Level Minneapolis Center
12:35PM 44.7686 -93.8203 72° East 338 389 11,000  Level Minneapolis Center
12:36PM 44.7969 -93.6925 73° East 342 394 11,000 -600 Level Minneapolis Center
12:38PM 44.8275 -93.5536 73° East 306 352 9,600 -1,260 Descending Minneapolis Center
12:39PM 44.8556 -93.4256 73° East 285 328 8,200 -780 Descending Minneapolis Center
12:40PM 44.8397 -93.3425 105° East 258 297 8,000 -660 Descending Minneapolis Center
12:41PM 44.7569 -93.3175 168° South 258 297 6,900 -960 Descending Minneapolis Center
12:42PM 44.6897 -93.3025 171° South 251 289 5,900 -840 Descending Minneapolis Center
12:43PM 44.6622 -93.2297 118° Southeast 203 234 5,100 -720 Descending Minneapolis Center
12:44PM 44.7089 -93.1967 27° Northeast 179 206 4,400 -720 Descending Minneapolis Center